Time;durP1;ratioP1;P1;durP2;ratioP2;P2;SDS_P1;SDS_P2;PMS_P1;PMS_P2;Temp;Humidity;BMP_temperature;BMP_pressure;BME280_temperature;BME280_humidity;BME280_pressure;Samples;Min_cycle;Max_cycle;Signal;HPM_P1;HPM_P2
2022/12/16 00:01:29;;;;;;;45.90;16.13;;;;;;;-2.79;100.00;92384.63;5010781;28;20099;-67
2022/12/16 00:03:57;;;;;;;37.03;12.30;;;;;;;-2.62;100.00;92384.00;5005698;28;20786;-67
2022/12/16 00:06:28;;;;;;;39.42;14.02;;;;;;;-2.53;100.00;92389.84;4983422;28;20048;-67
2022/12/16 00:08:55;;;;;;;39.60;13.10;;;;;;;-2.70;100.00;92387.78;5001024;28;20487;-68
2022/12/16 00:11:22;;;;;;;39.63;14.27;;;;;;;-2.71;100.00;92389.69;4983667;28;20056;-67
2022/12/16 00:13:49;;;;;;;40.58;14.65;;;;;;;-2.88;100.00;92377.66;4995226;28;20054;-68
2022/12/16 00:16:18;;;;;;;37.07;12.53;;;;;;;-2.85;100.00;92374.22;4997074;28;20068;-69
2022/12/16 00:18:46;;;;;;;42.10;14.25;;;;;;;-2.87;100.00;92373.06;4991606;28;20046;-67
2022/12/16 00:21:13;;;;;;;39.67;13.70;;;;;;;-2.90;100.00;92365.72;5001094;28;20050;-67
2022/12/16 00:23:43;;;;;;;34.95;12.27;;;;;;;-2.78;100.00;92370.06;5010556;28;20042;-68
2022/12/16 00:26:10;;;;;;;40.05;14.90;;;;;;;-2.99;100.00;92366.03;4994436;28;20064;-68
2022/12/16 00:28:39;;;;;;;37.83;13.47;;;;;;;-2.86;100.00;92364.63;5007250;28;20842;-67
2022/12/16 00:31:06;;;;;;;50.90;16.58;;;;;;;-3.08;100.00;92360.97;5010757;28;20104;-67
2022/12/16 00:33:32;;;;;;;45.05;14.77;;;;;;;-3.01;100.00;92365.63;5009993;28;20041;-67
2022/12/16 00:36:00;;;;;;;42.00;14.63;;;;;;;-2.86;100.00;92369.22;5010852;28;20420;-68
2022/12/16 00:38:27;;;;;;;46.65;15.25;;;;;;;-2.93;100.00;92364.56;5009999;28;20052;-67
2022/12/16 00:40:54;;;;;;;44.00;14.50;;;;;;;-2.90;100.00;92365.72;5010433;28;20069;-68
2022/12/16 00:43:21;;;;;;;45.78;14.55;;;;;;;-2.91;100.00;92367.63;4998390;28;20046;-68
2022/12/16 00:45:48;;;;;;;46.55;15.25;;;;;;;-2.90;100.00;92368.41;5007645;28;20063;-68
2022/12/16 00:48:18;;;;;;;48.95;15.68;;;;;;;-2.75;100.00;92362.03;5010091;28;20049;-67
2022/12/16 00:50:49;;;;;;;44.63;15.15;;;;;;;-2.96;100.00;92375.25;5009923;28;20049;-67
2022/12/16 00:53:18;;;;;;;46.60;14.60;;;;;;;-2.82;100.00;92376.19;5009909;28;20505;-67
2022/12/16 00:55:45;;;;;;;46.92;15.02;;;;;;;-2.87;100.00;92387.25;5005666;28;20049;-68
2022/12/16 00:58:12;;;;;;;56.95;17.30;;;;;;;-3.01;100.00;92387.84;5009768;28;20132;-67
2022/12/16 01:00:39;;;;;;;54.40;16.40;;;;;;;-3.11;100.00;92395.81;5009859;28;20454;-67
2022/12/16 01:03:07;;;;;;;58.65;17.38;;;;;;;-3.14;100.00;92402.69;5010105;28;20044;-67
2022/12/16 01:05:37;;;;;;;59.17;17.27;;;;;;;-3.05;100.00;92408.53;4998669;28;20046;-67
2022/12/16 01:08:03;;;;;;;60.78;18.23;;;;;;;-3.13;100.00;92412.25;5007909;28;20054;-67
2022/12/16 01:10:30;;;;;;;60.20;17.30;;;;;;;-3.03;100.00;92414.28;5024603;28;20088;-67
2022/12/16 01:12:57;;;;;;;61.08;17.27;;;;;;;-3.02;100.00;92413.16;5010153;28;20050;-68
2022/12/16 01:15:23;;;;;;;54.78;16.65;;;;;;;-2.76;100.00;92416.09;5003408;28;20051;-67
2022/12/16 01:17:50;;;;;;;50.90;16.07;;;;;;;-2.56;100.00;92430.88;4990376;28;20042;-67
2022/12/16 01:20:17;;;;;;;54.33;16.75;;;;;;;-2.32;100.00;92432.25;4996061;28;20103;-67
2022/12/16 01:22:43;;;;;;;61.72;18.25;;;;;;;-3.21;100.00;92432.88;5009780;28;20099;-67
2022/12/16 01:25:14;;;;;;;64.90;17.98;;;;;;;-3.12;100.00;92432.59;5005214;28;20414;-66
2022/12/16 01:27:40;;;;;;;68.10;19.45;;;;;;;-2.99;100.00;92435.03;4999372;28;20042;-67
2022/12/16 01:30:09;;;;;;;71.17;20.07;;;;;;;-3.25;100.00;92437.41;5006930;28;20042;-67
2022/12/16 01:32:36;;;;;;;75.43;20.15;;;;;;;-3.49;100.00;92438.66;5008919;28;20874;-67
2022/12/16 01:35:03;;;;;;;85.38;22.15;;;;;;;-3.47;100.00;92440.97;5009994;28;20044;-67
2022/12/16 01:37:49;;;;;;;73.20;19.80;;;;;;;-3.37;100.00;92443.03;5008903;28;20865;-67
2022/12/16 01:40:20;;;;;;;74.05;20.25;;;;;;;-3.55;100.00;92445.47;5009332;28;20042;-66
2022/12/16 01:42:47;;;;;;;70.63;19.20;;;;;;;-3.36;100.00;92447.25;5008260;28;20056;-67
2022/12/16 01:45:34;;;;;;;67.63;17.58;;;;;;;-3.33;100.00;92433.09;4989474;28;20410;-66
2022/12/16 01:48:31;;;;;;;70.63;19.13;;;;;;;-3.31;100.00;92438.88;4994358;28;20039;-67
2022/12/16 01:51:04;;;;;;;62.97;18.02;;;;;;;-3.33;100.00;92441.16;4977977;28;22257;-67
2022/12/16 01:53:31;;;;;;;61.90;18.08;;;;;;;-3.38;100.00;92440.69;4993767;28;20048;-66
2022/12/16 01:56:00;;;;;;;62.17;17.13;;;;;;;-3.37;100.00;92440.34;5006571;28;20178;-67
2022/12/16 01:58:33;;;;;;;60.25;17.08;;;;;;;-3.42;100.00;92446.81;5009557;28;20417;-67
2022/12/16 02:01:02;;;;;;;59.40;17.65;;;;;;;-3.27;100.00;92445.06;5001969;28;20402;-67
2022/12/16 02:03:32;;;;;;;62.35;17.67;;;;;;;-3.34;100.00;92444.97;5009592;28;20046;-66
2022/12/16 02:06:01;;;;;;;60.00;16.40;;;;;;;-3.41;100.00;92451.00;5004996;28;20437;-67
2022/12/16 02:08:28;;;;;;;61.97;18.07;;;;;;;-3.38;100.00;92443.38;5008357;28;20413;-67
2022/12/16 02:10:54;;;;;;;62.35;18.27;;;;;;;-3.31;100.00;92438.88;5013290;28;20050;-67
2022/12/16 02:14:07;;;;;;;55.20;17.05;;;;;;;-3.26;100.00;92433.19;5001488;28;20457;-68
2022/12/16 02:16:41;;;;;;;50.42;16.23;;;;;;;-3.38;100.00;92441.47;4993160;28;20042;-67
2022/12/16 02:19:17;;;;;;;54.08;16.80;;;;;;;-3.34;100.00;92439.63;4998868;28;20038;-67
2022/12/16 02:21:54;;;;;;;53.83;16.23;;;;;;;-3.47;100.00;92446.34;5012166;28;20756;-67
2022/12/16 02:24:43;;;;;;;52.58;15.15;;;;;;;-3.33;100.00;92453.81;5010571;28;20049;-67
2022/12/16 02:27:25;;;;;;;52.28;16.33;;;;;;;-3.20;100.00;92449.72;5007105;28;20046;-66
2022/12/16 02:30:23;;;;;;;46.20;14.65;;;;;;;-3.20;100.00;92457.78;5012679;28;20049;-67
2022/12/16 02:33:26;;;;;;;47.60;14.90;;;;;;;-3.25;100.00;92458.88;5010083;28;21650;-67
2022/12/16 02:36:01;;;;;;;43.13;14.53;;;;;;;-2.93;100.00;92463.09;5005138;28;20749;-66
2022/12/16 02:38:39;;;;;;;47.88;15.45;;;;;;;-3.14;100.00;92464.41;5008054;28;20046;-66
2022/12/16 02:41:14;;;;;;;48.15;15.73;;;;;;;-2.88;100.00;92471.59;5005734;28;20054;-66
2022/12/16 02:43:53;;;;;;;46.67;15.57;;;;;;;-2.61;100.00;92480.31;5002941;28;20710;-67
2022/12/16 02:46:25;;;;;;;44.25;15.20;;;;;;;-2.49;100.00;92473.94;4993517;28;20046;-66
2022/12/16 02:48:54;;;;;;;46.93;14.80;;;;;;;-2.54;100.00;92493.03;4996996;28;20042;-67
2022/12/16 02:51:24;;;;;;;39.33;13.63;;;;;;;-2.53;100.00;92494.59;4992716;28;20050;-66
2022/12/16 02:53:53;;;;;;;33.63;12.20;;;;;;;-2.83;100.00;92500.78;5008507;28;20046;-67
2022/12/16 02:56:47;;;;;;;31.45;11.70;;;;;;;-2.54;100.00;92495.72;5009331;28;20038;-67
2022/12/16 02:59:31;;;;;;;34.75;12.15;;;;;;;-2.56;100.00;92497.25;4998496;28;20789;-67
2022/12/16 03:02:06;;;;;;;32.80;11.80;;;;;;;-2.82;100.00;92497.00;5001448;28;20050;-67
2022/12/16 03:04:42;;;;;;;34.53;11.65;;;;;;;-2.83;100.00;92495.44;5010556;28;20042;-67
2022/12/16 03:07:14;;;;;;;34.78;12.35;;;;;;;-2.95;100.00;92497.59;5011591;28;20070;-67
2022/12/16 03:09:42;;;;;;;31.90;12.20;;;;;;;-3.08;100.00;92489.78;5011256;28;20513;-67
2022/12/16 03:12:13;;;;;;;33.85;11.85;;;;;;;-3.02;100.00;92490.19;5012357;28;20406;-67
2022/12/16 03:14:44;;;;;;;35.30;12.07;;;;;;;-2.96;100.00;92487.97;5011396;28;20743;-66
2022/12/16 03:17:13;;;;;;;34.58;12.55;;;;;;;-3.24;100.00;92487.28;4984997;28;20042;-66
2022/12/16 03:19:45;;;;;;;39.80;14.13;;;;;;;-3.23;100.00;92485.34;4998053;28;20042;-67
2022/12/16 03:22:17;;;;;;;39.78;13.98;;;;;;;-3.26;100.00;92494.13;5011781;28;20085;-66
2022/12/16 03:24:43;;;;;;;47.55;16.10;;;;;;;-3.41;100.00;92493.94;5008959;28;20462;-67
2022/12/16 03:27:17;;;;;;;58.40;17.93;;;;;;;-3.69;100.00;92502.34;5011637;28;20048;-66
2022/12/16 03:30:01;;;;;;;61.42;18.45;;;;;;;-3.78;100.00;92507.19;5013573;28;20124;-66
2022/12/16 03:32:32;;;;;;;62.25;18.10;;;;;;;-3.74;100.00;92507.22;4988274;28;20426;-67
2022/12/16 03:35:25;;;;;;;63.33;19.48;;;;;;;-3.77;100.00;92513.31;5012087;28;20107;-66
2022/12/16 03:37:56;;;;;;;59.17;17.98;;;;;;;-3.80;100.00;92506.78;5010971;28;20767;-66
2022/12/16 03:40:26;;;;;;;60.17;18.03;;;;;;;-3.75;100.00;92506.47;5011270;28;20054;-66
2022/12/16 03:42:54;;;;;;;57.40;18.30;;;;;;;-3.74;100.00;92508.03;4981903;28;20056;-65
2022/12/16 03:45:27;;;;;;;53.92;17.92;;;;;;;-3.82;100.00;92523.22;4992046;28;20126;-65
2022/12/16 03:47:57;;;;;;;64.40;18.77;;;;;;;-3.86;100.00;92519.72;4983031;28;20035;-65
2022/12/16 03:50:29;;;;;;;68.57;20.48;;;;;;;-4.08;100.00;92537.34;4991643;28;20450;-66
2022/12/16 03:52:55;;;;;;;61.97;18.67;;;;;;;-4.16;100.00;92541.03;4991547;28;20057;-66
2022/12/16 03:55:23;;;;;;;69.40;21.13;;;;;;;-4.26;100.00;92553.09;5002164;28;20050;-66
2022/12/16 03:57:49;;;;;;;70.30;20.60;;;;;;;-4.22;100.00;92553.94;5005874;28;20156;-66
2022/12/16 04:00:16;;;;;;;65.43;19.30;;;;;;;-4.33;100.00;92555.63;5002102;28;20052;-65
2022/12/16 04:02:43;;;;;;;63.20;20.38;;;;;;;-4.10;100.00;92560.28;4994889;28;20046;-65
2022/12/16 04:05:10;;;;;;;60.77;17.83;;;;;;;-4.05;100.00;92562.63;5010773;28;20136;-64
2022/12/16 04:07:37;;;;;;;65.88;17.70;;;;;;;-3.94;100.00;92571.66;5009558;28;20115;-66
2022/12/16 04:10:05;;;;;;;57.47;17.88;;;;;;;-3.98;100.00;92576.16;5011098;28;20095;-66
2022/12/16 04:27:23;;;;;;;58.83;18.00;;;;;;;-3.99;100.00;92584.56;5001809;28;20042;-66
2022/12/16 04:29:22;;;;;;;53.05;18.27;;;;;;;-4.10;100.00;92595.09;5010430;28;20050;-67
2022/12/16 04:31:51;;;;;;;69.07;20.37;;;;;;;-4.23;100.00;92591.78;5010317;28;20048;-67
2022/12/16 04:34:30;;;;;;;68.07;19.48;;;;;;;-4.25;100.00;92596.72;5010302;28;20050;-66
